createdAt,value
2022-08-05T00:02:27.493Z,82.87
2022-08-05T00:04:56.192Z,83.17
2022-08-05T00:07:58.624Z,83.03
2022-08-05T00:10:11.635Z,83.25
2022-08-05T00:12:56.079Z,82.80
2022-08-05T00:15:55.392Z,83.35
2022-08-05T00:18:21.289Z,83.10
2022-08-05T00:20:48.970Z,83.40
2022-08-05T00:23:16.120Z,82.87
2022-08-05T00:25:46.153Z,83.20
2022-08-05T00:28:13.419Z,83.17
2022-08-05T00:30:41.087Z,83.22
2022-08-05T00:33:15.702Z,83.31
2022-08-05T00:36:15.097Z,83.22
2022-08-05T00:38:44.434Z,83.25
2022-08-05T00:41:12.832Z,83.84
2022-08-05T00:43:46.948Z,83.28
2022-08-05T00:46:14.264Z,83.49
2022-08-05T00:48:51.243Z,83.57
2022-08-05T00:51:50.342Z,83.97
2022-08-05T00:54:06.353Z,83.62
2022-08-05T00:56:34.499Z,83.70
2022-08-05T00:59:02.108Z,83.78
2022-08-05T01:01:48.116Z,83.80
2022-08-05T01:04:16.117Z,83.97
2022-08-05T01:06:48.006Z,84.22
2022-08-05T01:09:20.097Z,84.30
2022-08-05T01:11:51.760Z,85.13
2022-08-05T01:14:27.940Z,85.19
2022-08-05T01:17:03.442Z,85.51
2022-08-05T01:20:01.387Z,85.74
2022-08-05T01:22:40.326Z,85.70
2022-08-05T01:25:39.845Z,86.52
2022-08-05T01:28:18.290Z,86.38
2022-08-05T01:30:55.095Z,86.51
2022-08-05T01:33:26.339Z,86.85
2022-08-05T01:35:55.657Z,87.16
2022-08-05T01:38:27.060Z,87.00
2022-08-05T01:40:58.830Z,87.52
2022-08-05T01:43:28.782Z,87.37
2022-08-05T01:45:57.108Z,87.46
2022-08-05T01:48:26.932Z,87.67
2022-08-05T01:50:56.642Z,87.92
2022-08-05T01:53:58.259Z,87.63
2022-08-05T01:58:14.754Z,87.51
2022-08-05T01:59:04.924Z,87.67
2022-08-05T02:01:38.881Z,87.71
2022-08-05T02:04:10.333Z,87.54
2022-08-05T02:06:38.827Z,87.86
2022-08-05T02:09:07.247Z,88.15
2022-08-05T02:11:47.842Z,87.82
2022-08-05T02:14:27.496Z,88.12
2022-08-05T02:16:59.172Z,87.92
2022-08-05T02:19:34.341Z,88.30
2022-08-05T02:22:09.715Z,88.36
2022-08-05T02:24:56.036Z,88.25
2022-08-05T02:27:30.023Z,88.16
2022-08-05T02:30:13.829Z,88.55
2022-08-05T02:32:42.435Z,88.94
2022-08-05T02:35:13.597Z,88.87
2022-08-05T02:37:42.998Z,89.07
2022-08-05T02:40:17.219Z,89.43
2022-08-05T02:42:52.757Z,89.27
2022-08-05T02:45:24.171Z,89.20
2022-08-05T02:48:07.073Z,89.33
2022-08-05T02:50:44.089Z,89.40
2022-08-05T02:53:18.600Z,89.36
2022-08-05T02:55:59.650Z,89.17
2022-08-05T02:58:27.571Z,89.41
2022-08-05T03:01:02.512Z,89.60
2022-08-05T03:03:33.669Z,89.43
2022-08-05T03:06:56.735Z,89.80
2022-08-05T03:08:52.176Z,89.61
2022-08-05T03:11:57.334Z,89.29
2022-08-05T03:14:08.647Z,89.84
2022-08-05T03:16:41.398Z,89.65
2022-08-05T03:19:17.425Z,89.46
2022-08-05T03:21:55.651Z,89.92
2022-08-05T03:24:30.034Z,89.60
2022-08-05T03:26:58.252Z,90.03
2022-08-05T03:29:44.452Z,89.98
2022-08-05T03:32:15.422Z,89.87
2022-08-05T03:34:42.601Z,90.09
2022-08-05T03:37:18.845Z,89.79
2022-08-05T03:39:59.073Z,90.13
2022-08-05T03:42:28.901Z,90.28
2022-08-05T03:44:56.253Z,90.11
2022-08-05T03:47:25.659Z,90.19
2022-08-05T03:49:58.024Z,90.53
2022-08-05T03:52:37.864Z,90.03
2022-08-05T03:56:10.875Z,89.77
2022-08-05T03:58:14.567Z,90.31
2022-08-05T04:00:44.236Z,90.22
2022-08-05T04:03:28.174Z,89.97
2022-08-05T04:05:56.734Z,89.98
2022-08-05T04:08:34.682Z,89.65
2022-08-05T04:11:05.262Z,89.17
2022-08-05T04:13:50.120Z,89.03
2022-08-05T04:16:24.275Z,88.84
2022-08-05T04:18:54.874Z,88.63
2022-08-05T04:22:09.431Z,88.28
2022-08-05T04:24:19.195Z,88.52
2022-08-05T04:26:48.934Z,88.77
2022-08-05T04:29:15.808Z,88.76
2022-08-05T04:31:42.910Z,88.84
2022-08-05T04:34:31.618Z,89.15
2022-08-05T04:36:58.172Z,89.35
2022-08-05T04:39:25.138Z,89.40
2022-08-05T04:41:54.728Z,89.00
2022-08-05T04:44:30.304Z,89.31
2022-08-05T04:46:58.462Z,89.18
2022-08-05T04:50:02.152Z,88.99
2022-08-05T04:52:14.024Z,89.04
2022-08-05T04:54:42.000Z,89.56
2022-08-05T04:57:08.895Z,89.49
2022-08-05T04:59:38.274Z,89.83
2022-08-05T05:02:36.334Z,89.36
2022-08-05T05:05:02.737Z,89.17
2022-08-05T05:07:32.471Z,88.72
2022-08-05T05:10:04.343Z,88.75
2022-08-05T05:12:31.368Z,88.36
2022-08-05T05:14:58.458Z,88.72
2022-08-05T05:17:55.909Z,88.15
2022-08-05T05:20:13.976Z,88.33
2022-08-05T05:22:41.206Z,88.60
2022-08-05T05:25:16.600Z,88.29
2022-08-05T05:27:53.697Z,88.08
2022-08-05T05:30:30.593Z,87.70
2022-08-05T05:33:09.443Z,87.12
2022-08-05T05:35:45.211Z,86.56
2022-08-05T05:38:13.383Z,86.26
2022-08-05T05:40:48.302Z,85.68
2022-08-05T05:43:22.079Z,85.17
2022-08-05T05:46:06.861Z,84.71
2022-08-05T05:48:44.359Z,83.43
2022-08-05T05:51:18.607Z,82.17
2022-08-05T05:53:54.184Z,82.09
2022-08-05T05:56:33.138Z,80.68
2022-08-05T05:59:03.403Z,79.70
2022-08-05T06:01:38.010Z,79.31
2022-08-05T06:04:07.036Z,79.85
2022-08-05T06:06:35.791Z,79.82
2022-08-05T06:09:03.860Z,80.31
2022-08-05T06:11:31.114Z,80.09
2022-08-05T06:13:58.086Z,79.61
2022-08-05T06:16:32.850Z,79.96
2022-08-05T06:19:06.003Z,79.71
2022-08-05T06:21:38.887Z,79.79
2022-08-05T06:24:12.222Z,79.69
2022-08-05T06:26:39.884Z,79.92
2022-08-05T06:29:25.423Z,79.15
2022-08-05T06:32:06.016Z,78.32
2022-08-05T06:34:48.573Z,78.66
2022-08-05T06:37:56.480Z,77.28
2022-08-05T06:40:10.041Z,76.83
2022-08-05T06:42:36.962Z,76.41
2022-08-05T06:45:08.867Z,76.62
2022-08-05T06:48:37.015Z,77.45
2022-08-05T06:50:23.042Z,77.04
2022-08-05T06:53:03.525Z,76.08
2022-08-05T06:55:38.446Z,76.32
2022-08-05T06:58:29.565Z,75.15
2022-08-05T07:00:58.109Z,74.09
2022-08-05T07:03:27.984Z,74.11
2022-08-05T07:06:05.674Z,73.97
2022-08-05T07:08:42.775Z,73.30
2022-08-05T07:11:15.134Z,72.66
2022-08-05T07:14:01.482Z,71.97
2022-08-05T07:17:56.390Z,71.45
2022-08-05T07:22:28.389Z,68.66
2022-08-05T07:24:59.460Z,68.69
2022-08-05T07:27:27.702Z,67.70
2022-08-05T07:30:28.428Z,65.09
2022-08-05T07:32:57.797Z,64.67
2022-08-05T07:36:04.400Z,64.33
2022-08-05T07:38:12.417Z,63.32
2022-08-05T07:40:55.527Z,62.86
2022-08-05T07:43:27.006Z,63.27
2022-08-05T07:45:56.437Z,62.28
2022-08-05T07:49:02.857Z,61.67
2022-08-05T07:51:23.613Z,60.07
2022-08-05T07:53:59.328Z,58.05
2022-08-05T07:57:00.004Z,56.70
2022-08-05T07:59:17.290Z,55.90
2022-08-05T08:01:52.419Z,55.62
2022-08-05T08:04:37.575Z,52.93
2022-08-05T08:07:07.486Z,48.97
2022-08-05T08:09:34.461Z,49.56
2022-08-05T08:12:10.630Z,49.77
2022-08-05T08:14:41.428Z,46.46
2022-08-05T08:17:16.091Z,43.71
2022-08-05T08:20:21.790Z,41.31
2022-08-05T08:22:32.393Z,37.37
2022-08-05T08:25:02.860Z,39.86
2022-08-05T08:27:40.402Z,43.07
2022-08-05T08:30:30.137Z,42.52
2022-08-05T08:33:08.266Z,43.38
2022-08-05T08:35:41.493Z,45.71
2022-08-05T08:38:32.132Z,47.59
2022-08-05T08:41:07.403Z,46.50
2022-08-05T08:45:23.704Z,45.52
2022-08-05T08:46:24.448Z,45.29
2022-08-05T08:49:06.157Z,46.11
2022-08-05T08:52:03.648Z,44.39
2022-08-05T08:54:30.836Z,43.82
2022-08-05T08:57:00.136Z,42.21
2022-08-05T08:59:33.837Z,42.88
2022-08-05T09:02:01.569Z,43.93
2022-08-05T09:04:30.308Z,42.80
2022-08-05T09:06:57.598Z,43.56
2022-08-05T09:09:26.092Z,44.31
2022-08-05T09:12:20.298Z,42.30
2022-08-05T09:14:58.725Z,38.91
2022-08-05T09:17:43.109Z,40.57
2022-08-05T09:20:36.709Z,41.78
2022-08-05T09:23:09.242Z,42.73
2022-08-05T09:26:03.155Z,43.11
2022-08-05T09:28:32.282Z,45.06
2022-08-05T09:31:22.592Z,43.75
2022-08-05T09:33:52.755Z,42.87
2022-08-05T09:36:20.834Z,46.19
2022-08-05T09:38:58.732Z,46.57
2022-08-05T09:41:26.475Z,47.24
2022-08-05T09:43:59.658Z,47.03
2022-08-05T09:46:30.205Z,47.33
2022-08-05T09:49:08.260Z,47.59
2022-08-05T09:51:45.149Z,47.56
2022-08-05T09:54:21.417Z,48.31
2022-08-05T09:56:57.519Z,46.75
2022-08-05T09:59:27.657Z,48.01
2022-08-05T10:01:57.941Z,50.91
2022-08-05T10:04:36.045Z,51.45
2022-08-05T10:07:20.945Z,52.89
2022-08-05T10:10:04.283Z,54.12
2022-08-05T10:12:49.586Z,53.84
2022-08-05T10:15:25.730Z,54.80
2022-08-05T10:18:11.071Z,55.49
2022-08-05T10:20:44.053Z,56.01
2022-08-05T10:23:34.730Z,56.54
2022-08-05T10:26:02.797Z,56.23
2022-08-05T10:28:30.734Z,55.75
2022-08-05T10:32:52.972Z,54.17
2022-08-05T10:33:52.207Z,52.92
2022-08-05T10:36:23.587Z,51.09
2022-08-05T10:38:59.155Z,52.00
2022-08-05T10:41:45.243Z,51.64
2022-08-05T10:44:19.019Z,50.67
2022-08-05T10:46:50.681Z,49.03
2022-08-05T10:49:27.147Z,47.93
2022-08-05T10:52:00.369Z,49.36
2022-08-05T10:54:47.130Z,50.57
2022-08-05T10:57:32.287Z,52.44
2022-08-05T11:00:23.259Z,50.92
2022-08-05T11:03:23.785Z,48.45
2022-08-05T11:06:15.087Z,48.96
2022-08-05T11:09:32.211Z,46.29
2022-08-05T11:12:26.734Z,46.81
2022-08-05T11:15:19.103Z,47.52
2022-08-05T11:17:59.587Z,46.60
2022-08-05T11:20:37.256Z,47.76
2022-08-05T11:24:02.819Z,46.88
2022-08-05T11:26:33.398Z,46.27
2022-08-05T11:29:11.841Z,47.76
2022-08-05T11:31:58.580Z,47.34
2022-08-05T11:34:37.811Z,47.95
2022-08-05T11:38:14.326Z,47.88
2022-08-05T11:39:55.304Z,47.56
2022-08-05T11:42:27.942Z,46.78
2022-08-05T11:45:02.536Z,49.86
2022-08-05T11:47:49.613Z,50.50
2022-08-05T11:50:18.449Z,49.60
2022-08-05T11:52:46.212Z,50.08
2022-08-05T11:55:16.659Z,49.91
2022-08-05T11:58:10.568Z,48.92
2022-08-05T12:00:38.655Z,49.70
2022-08-05T12:03:28.638Z,50.16
2022-08-05T12:06:00.057Z,47.69
2022-08-05T12:08:27.055Z,42.66
2022-08-05T12:10:57.816Z,42.34
2022-08-05T12:13:47.591Z,45.33
2022-08-05T12:16:18.913Z,45.33
2022-08-05T12:18:49.013Z,46.94
2022-08-05T12:21:23.719Z,46.72
2022-08-05T12:23:57.798Z,46.47
2022-08-05T12:26:31.723Z,52.50
2022-08-05T12:29:01.515Z,55.71
2022-08-05T12:31:33.487Z,58.14
2022-08-05T12:34:14.578Z,58.09
2022-08-05T12:36:48.396Z,56.90
2022-08-05T12:39:17.491Z,56.27
2022-08-05T12:41:45.534Z,56.05
2022-08-05T12:44:21.720Z,54.97
2022-08-05T12:47:00.401Z,52.68
2022-08-05T12:50:03.565Z,48.26
2022-08-05T12:52:30.390Z,48.04
2022-08-05T12:55:15.726Z,49.52
2022-08-05T12:58:38.696Z,49.47
2022-08-05T13:02:00.355Z,50.68
2022-08-05T13:03:18.670Z,48.36
2022-08-05T13:05:47.520Z,45.05
2022-08-05T13:08:18.850Z,46.08
2022-08-05T13:10:50.776Z,47.20
2022-08-05T13:14:05.169Z,46.99
2022-08-05T13:16:15.476Z,45.50
2022-08-05T13:18:51.382Z,43.52
2022-08-05T13:21:18.210Z,43.75
2022-08-05T13:23:50.892Z,42.35
2022-08-05T13:26:20.928Z,44.96
2022-08-05T13:28:57.125Z,46.44
2022-08-05T13:31:33.879Z,46.98
2022-08-05T13:34:24.420Z,44.80
2022-08-05T13:36:52.736Z,41.62
2022-08-05T13:40:13.415Z,44.05
2022-08-05T13:42:06.889Z,45.14
2022-08-05T13:44:34.807Z,47.04
2022-08-05T13:47:08.304Z,44.23
2022-08-05T13:49:35.692Z,41.71
2022-08-05T13:52:11.524Z,41.19
2022-08-05T13:54:38.856Z,41.60
2022-08-05T13:57:06.923Z,41.16
2022-08-05T13:59:34.629Z,42.86
2022-08-05T14:02:05.250Z,42.28
2022-08-05T14:04:54.211Z,43.66
2022-08-05T14:07:56.255Z,45.44
2022-08-05T14:10:11.472Z,43.18
2022-08-05T14:12:38.363Z,42.60
2022-08-05T14:16:04.741Z,41.52
2022-08-05T14:17:57.794Z,39.94
2022-08-05T14:20:27.598Z,39.00
2022-08-05T14:22:54.935Z,40.76
2022-08-05T14:25:28.150Z,39.29
2022-08-05T14:27:55.803Z,39.42
2022-08-05T14:30:23.112Z,40.90
2022-08-05T14:32:53.721Z,40.12
2022-08-05T14:35:22.848Z,39.85
2022-08-05T14:37:52.289Z,40.24
2022-08-05T14:40:24.322Z,40.65
2022-08-05T14:42:51.525Z,41.86
2022-08-05T14:45:18.977Z,41.37
2022-08-05T14:48:04.204Z,40.52
2022-08-05T14:50:33.365Z,39.83
2022-08-05T14:53:06.937Z,41.18
2022-08-05T14:55:39.421Z,42.84
2022-08-05T14:58:12.002Z,43.01
2022-08-05T15:00:57.888Z,46.80
2022-08-05T15:03:27.392Z,49.76
2022-08-05T15:06:06.915Z,51.27
2022-08-05T15:09:01.330Z,48.94
2022-08-05T15:11:52.626Z,43.38
2022-08-05T15:14:34.009Z,43.16
2022-08-05T15:17:00.073Z,47.79
2022-08-05T15:19:26.856Z,47.82
2022-08-05T15:21:57.943Z,43.22
2022-08-05T15:24:27.487Z,44.30
2022-08-05T15:26:55.823Z,47.53
2022-08-05T15:29:22.841Z,50.23
2022-08-05T15:31:52.994Z,51.84
2022-08-05T15:34:33.065Z,47.00
2022-08-05T15:37:06.303Z,45.94
2022-08-05T15:40:59.324Z,42.42
2022-08-05T15:42:50.302Z,40.04
2022-08-05T15:45:07.453Z,40.20
2022-08-05T15:47:36.739Z,38.58
2022-08-05T15:50:07.253Z,39.09
2022-08-05T15:52:53.303Z,37.44
2022-08-05T15:55:24.988Z,36.67
2022-08-05T15:58:09.776Z,35.98
2022-08-05T16:00:50.991Z,37.68
2022-08-05T16:03:32.842Z,40.46
2022-08-05T16:06:01.127Z,43.17
2022-08-05T16:08:31.021Z,44.94
2022-08-05T16:10:57.869Z,48.03
2022-08-05T16:13:34.268Z,46.83
2022-08-05T16:16:02.108Z,49.37
2022-08-05T16:18:30.411Z,50.66
2022-08-05T16:20:58.664Z,51.06
2022-08-05T16:23:53.073Z,52.95
2022-08-05T16:26:26.121Z,52.35
2022-08-05T16:28:54.380Z,53.34
2022-08-05T16:31:22.090Z,54.96
2022-08-05T16:33:49.670Z,53.53
2022-08-05T16:36:20.480Z,54.04
2022-08-05T16:38:55.054Z,55.65
2022-08-05T16:42:14.736Z,56.10
2022-08-05T16:44:09.956Z,55.42
2022-08-05T16:46:41.088Z,56.40
2022-08-05T16:49:09.969Z,55.52
2022-08-05T16:51:42.679Z,55.30
2022-08-05T16:54:27.187Z,53.21
2022-08-05T16:56:57.214Z,54.66
2022-08-05T16:59:24.054Z,53.87
2022-08-05T17:01:55.935Z,51.49
2022-08-05T17:04:26.680Z,51.61
2022-08-05T17:06:55.505Z,51.53
2022-08-05T17:09:23.828Z,51.25
2022-08-05T17:11:55.909Z,51.79
2022-08-05T17:14:36.742Z,52.52
2022-08-05T17:17:06.710Z,52.21
2022-08-05T17:19:43.842Z,52.64
2022-08-05T17:22:17.837Z,52.19
2022-08-05T17:24:58.045Z,53.33
2022-08-05T17:27:26.313Z,53.69
2022-08-05T17:30:00.669Z,55.25
2022-08-05T17:32:29.712Z,54.76
2022-08-05T17:34:58.237Z,55.27
2022-08-05T17:37:40.305Z,57.04
2022-08-05T17:40:13.114Z,58.44
2022-08-05T17:42:41.754Z,59.74
2022-08-05T17:45:20.626Z,59.26
2022-08-05T17:47:53.571Z,58.82
2022-08-05T17:50:22.752Z,58.80
2022-08-05T17:52:56.337Z,59.46
2022-08-05T17:55:34.425Z,60.57
2022-08-05T17:58:09.328Z,62.20
2022-08-05T18:00:39.893Z,63.25
2022-08-05T18:03:11.703Z,63.92
2022-08-05T18:05:53.584Z,64.24
2022-08-05T18:08:21.117Z,63.25
2022-08-05T18:10:49.211Z,62.88
2022-08-05T18:13:16.479Z,61.65
2022-08-05T18:15:45.679Z,60.33
2022-08-05T18:18:16.211Z,59.40
2022-08-05T18:20:43.933Z,58.51
2022-08-05T18:23:14.134Z,58.91
2022-08-05T18:25:45.380Z,58.77
2022-08-05T18:28:16.195Z,59.35
2022-08-05T18:30:44.020Z,60.53
2022-08-05T18:33:13.751Z,61.04
2022-08-05T18:35:59.874Z,61.32
2022-08-05T18:38:28.773Z,60.34
2022-08-05T18:41:55.077Z,60.31
2022-08-05T18:43:48.605Z,61.24
2022-08-05T18:46:20.239Z,62.27
2022-08-05T18:48:47.855Z,62.94
2022-08-05T18:52:03.028Z,64.14
2022-08-05T18:54:24.123Z,64.61
2022-08-05T18:56:52.026Z,64.46
2022-08-05T18:59:43.620Z,64.46
2022-08-05T19:02:11.194Z,64.70
2022-08-05T19:05:01.076Z,64.97
2022-08-05T19:07:45.983Z,65.12
2022-08-05T19:10:13.937Z,64.96
2022-08-05T19:12:40.754Z,65.63
2022-08-05T19:15:10.680Z,65.17
2022-08-05T19:18:08.441Z,65.46
2022-08-05T19:20:36.772Z,65.86
2022-08-05T19:23:08.050Z,66.54
2022-08-05T19:25:39.121Z,66.59
2022-08-05T19:28:10.460Z,67.07
2022-08-05T19:30:38.683Z,67.32
2022-08-05T19:33:07.941Z,68.01
2022-08-05T19:35:57.419Z,68.20
2022-08-05T19:38:24.586Z,68.34
2022-08-05T19:40:53.742Z,68.71
2022-08-05T19:44:04.685Z,69.09
2022-08-05T19:46:16.873Z,69.47
2022-08-05T19:48:55.733Z,69.61
2022-08-05T19:51:56.386Z,70.71
2022-08-05T19:54:26.928Z,70.83
2022-08-05T19:56:57.283Z,71.29
2022-08-05T19:59:59.648Z,71.85
2022-08-05T20:02:12.507Z,72.64
2022-08-05T20:04:43.104Z,72.89
2022-08-05T20:07:13.714Z,73.86
2022-08-05T20:09:54.673Z,74.51
2022-08-05T20:12:24.150Z,74.62
2022-08-05T20:14:52.392Z,74.30
2022-08-05T20:17:23.641Z,74.41
2022-08-05T20:19:50.958Z,75.06
2022-08-05T20:22:24.157Z,75.56
2022-08-05T20:24:53.781Z,76.02
2022-08-05T20:27:21.126Z,77.42
2022-08-05T20:29:58.346Z,76.97
2022-08-05T20:32:27.747Z,78.48
2022-08-05T20:34:54.952Z,79.12
2022-08-05T20:38:06.639Z,80.17
2022-08-05T20:40:10.251Z,79.99
2022-08-05T20:42:37.640Z,80.34
2022-08-05T20:45:07.321Z,81.07
2022-08-05T20:47:40.097Z,81.66
2022-08-05T20:50:08.734Z,81.54
2022-08-05T20:52:39.315Z,81.45
2022-08-05T20:55:54.831Z,82.42
2022-08-05T20:57:57.137Z,82.42
2022-08-05T21:00:44.355Z,83.55
2022-08-05T21:03:12.571Z,84.34
2022-08-05T21:05:53.535Z,85.07
2022-08-05T21:08:33.100Z,84.00
2022-08-05T21:11:10.435Z,85.18
2022-08-05T21:13:48.523Z,85.32
2022-08-05T21:16:29.666Z,84.87
2022-08-05T21:19:00.547Z,84.34
2022-08-05T21:21:43.740Z,85.43
2022-08-05T21:24:12.830Z,85.16
2022-08-05T21:26:41.446Z,85.20
2022-08-05T21:29:10.099Z,84.33
2022-08-05T21:31:43.517Z,83.77
2022-08-05T21:34:12.388Z,84.79
2022-08-05T21:36:39.347Z,84.68
2022-08-05T21:39:09.549Z,84.56
2022-08-05T21:41:41.158Z,83.67
2022-08-05T21:44:07.962Z,82.44
2022-08-05T21:46:37.954Z,81.95
2022-08-05T21:49:10.068Z,81.16
2022-08-05T21:52:16.558Z,80.38
2022-08-05T21:54:42.981Z,79.68
2022-08-05T21:57:30.933Z,79.20
2022-08-05T22:00:06.262Z,79.11
2022-08-05T22:02:39.958Z,79.23
2022-08-05T22:05:09.698Z,79.30
2022-08-05T22:07:40.436Z,80.41
2022-08-05T22:10:27.016Z,80.61
2022-08-05T22:12:55.028Z,81.26
2022-08-05T22:16:01.747Z,81.83
2022-08-05T22:18:11.441Z,82.21
2022-08-05T22:20:38.890Z,83.77
2022-08-05T22:24:01.946Z,82.91
2022-08-05T22:26:32.095Z,84.19
2022-08-05T22:29:00.678Z,85.14
2022-08-05T22:31:30.131Z,85.96
2022-08-05T22:34:00.947Z,86.79
2022-08-05T22:36:28.995Z,86.64
2022-08-05T22:38:57.380Z,88.21
2022-08-05T22:42:09.459Z,87.76
2022-08-05T22:44:18.950Z,87.76
2022-08-05T22:46:46.167Z,87.42
2022-08-05T22:50:17.611Z,87.84
2022-08-05T22:52:06.362Z,88.33
2022-08-05T22:54:36.373Z,89.16
2022-08-05T22:57:03.855Z,88.51
2022-08-05T22:59:42.626Z,89.15
2022-08-05T23:02:16.808Z,89.69
2022-08-05T23:04:51.929Z,89.35
2022-08-05T23:07:19.480Z,90.17
2022-08-05T23:09:58.281Z,90.79
2022-08-05T23:12:32.497Z,90.51
2022-08-05T23:15:00.495Z,90.93
2022-08-05T23:17:34.092Z,92.13
2022-08-05T23:20:16.604Z,91.93
2022-08-05T23:22:47.342Z,92.00
2022-08-05T23:25:52.911Z,91.74
2022-08-05T23:28:06.735Z,92.10
2022-08-05T23:30:39.962Z,92.31
2022-08-05T23:33:22.616Z,92.30
2022-08-05T23:35:56.080Z,93.06
2022-08-05T23:38:23.427Z,92.94
2022-08-05T23:40:53.044Z,93.53
2022-08-05T23:43:25.731Z,92.50
2022-08-05T23:46:05.171Z,92.73
2022-08-05T23:48:47.389Z,92.89
2022-08-05T23:51:53.552Z,93.01
2022-08-05T23:54:25.089Z,92.05
2022-08-05T23:56:54.509Z,92.21
2022-08-05T23:59:21.732Z,91.08
